Main page
METAR-TAF:

Airports :

Gdańsk, Poland

Gdańsk Lech Wałęsa Airport

latitude: 54-23N, longitude: 018-28E, elevation: 135 m

Current weather observation

The report was made 39 minutes ago, at 22:30 UTC
Wind 1 kt from the West
Temperature 6°C
Humidity 70%
Pressure 1021 hPa
Visibility 10 km or more
no clouds below 1500 m and no cumulonimbus

METAR: EPGD 022230Z 27001KT CAVOK 06/01 Q1021

Time: 01:09 (23:09 UTC)

Forecast

The report was made 5 hours and 39 minutes ago, at 17:30 UTC
Forecast valid from 02 at 18 UTC to 03 at 18 UTC
Wind 7 kt from the North
Visibility 10 km or more
no clouds below 1500 m and no cumulonimbus
Temporary
from 03 at 12 UTC to 03 at 18 UTC
Scattered clouds at a height of 4000 ft, Cumulonimbus.

TAF: EPGD 021730Z 0218/0318 01007KT CAVOK TEMPO 0312/0318 SCT040CB

METAR-TAF

Weather observations and forecasts of more than 4000 airports (METAR and TAF reports).

The available stations are represented by yellow and red dots on the map.

Hover mouse over dot to see the name of the station.

Then click to see weather observations and forecasts.

To change the map : click on the green buttons with a black cross to zoom in, on the green button with a dash to zoom out, or on the green arrows for adjacent maps.


METAR-TAF: